sensor_id;sensor_type;location;lat;lon;timestamp;temperature;humidity
27224;DHT22;14965;50.660;13.226;2023-04-01T09:42:34;9.40;99.90
27224;DHT22;14965;50.660;13.226;2023-04-01T09:45:14;9.60;99.90
27224;DHT22;14965;50.660;13.226;2023-04-01T09:48:02;9.60;99.90
27224;DHT22;14965;50.660;13.226;2023-04-01T09:50:46;9.70;99.90
27224;DHT22;14965;50.660;13.226;2023-04-01T09:53:28;9.70;99.90
27224;DHT22;14965;50.660;13.226;2023-04-01T09:56:23;9.70;99.90
27224;DHT22;14965;50.660;13.226;2023-04-01T09:59:51;9.70;99.90
27224;DHT22;14965;50.660;13.226;2023-04-01T10:03:11;9.70;99.90
27224;DHT22;14965;50.660;13.226;2023-04-01T10:06:22;9.70;99.90
27224;DHT22;14965;50.660;13.226;2023-04-01T10:09:44;9.70;99.90
27224;DHT22;14965;50.660;13.226;2023-04-01T10:20:10;9.60;99.90
27224;DHT22;14965;50.660;13.226;2023-04-01T10:22:58;9.80;99.90
27224;DHT22;14965;50.660;13.226;2023-04-01T10:26:08;9.90;99.90
27224;DHT22;14965;50.660;13.226;2023-04-01T10:29:02;9.80;99.90
27224;DHT22;14965;50.660;13.226;2023-04-01T10:32:26;9.70;99.90
27224;DHT22;14965;50.660;13.226;2023-04-01T10:35:55;9.60;99.90
27224;DHT22;14965;50.660;13.226;2023-04-01T10:39:29;9.60;99.90
27224;DHT22;14965;50.660;13.226;2023-04-01T10:42:17;9.60;99.90
27224;DHT22;14965;50.660;13.226;2023-04-01T10:45:19;9.60;99.90
27224;DHT22;14965;50.660;13.226;2023-04-01T10:48:23;9.70;99.90
27224;DHT22;14965;50.660;13.226;2023-04-01T10:51:43;9.80;99.90
27224;DHT22;14965;50.660;13.226;2023-04-01T10:54:42;9.90;99.90
27224;DHT22;14965;50.660;13.226;2023-04-01T10:57:37;10.10;99.90
27224;DHT22;14965;50.660;13.226;2023-04-01T11:00:53;10.20;99.90
27224;DHT22;14965;50.660;13.226;2023-04-01T11:03:54;10.20;99.90
27224;DHT22;14965;50.660;13.226;2023-04-01T11:06:53;10.10;99.90
27224;DHT22;14965;50.660;13.226;2023-04-01T11:10:00;10.20;99.90
27224;DHT22;14965;50.660;13.226;2023-04-01T11:13:08;10.20;99.90
27224;DHT22;14965;50.660;13.226;2023-04-01T11:16:07;10.20;99.90
27224;DHT22;14965;50.660;13.226;2023-04-01T11:23:02;10.20;99.90
27224;DHT22;14965;50.660;13.226;2023-04-01T11:25:49;10.20;99.90
27224;DHT22;14965;50.660;13.226;2023-04-01T11:28:40;10.20;99.90
27224;DHT22;14965;50.660;13.226;2023-04-01T11:31:29;10.20;99.90
27224;DHT22;14965;50.660;13.226;2023-04-01T11:37:10;10.20;99.90
27224;DHT22;14965;50.660;13.226;2023-04-01T11:40:02;10.10;99.90
27224;DHT22;14965;50.660;13.226;2023-04-01T11:42:41;10.20;99.90
27224;DHT22;14965;50.660;13.226;2023-04-01T11:45:22;10.20;99.90
27224;DHT22;14965;50.660;13.226;2023-04-01T11:48:07;10.30;99.90
27224;DHT22;14965;50.660;13.226;2023-04-01T11:50:58;10.30;99.90
27224;DHT22;14965;50.660;13.226;2023-04-01T11:53:47;10.40;99.90
27224;DHT22;14965;50.660;13.226;2023-04-01T11:56:43;10.50;99.90
27224;DHT22;14965;50.660;13.226;2023-04-01T11:59:47;10.50;99.90
27224;DHT22;14965;50.660;13.226;2023-04-01T12:02:29;10.50;99.90
27224;DHT22;14965;50.660;13.226;2023-04-01T12:05:34;10.50;99.90
27224;DHT22;14965;50.660;13.226;2023-04-01T12:08:15;10.60;99.90
27224;DHT22;14965;50.660;13.226;2023-04-01T12:10:59;10.30;99.90
27224;DHT22;14965;50.660;13.226;2023-04-01T12:13:40;10.10;99.90
27224;DHT22;14965;50.660;13.226;2023-04-01T12:16:27;9.90;99.90
27224;DHT22;14965;50.660;13.226;2023-04-01T12:19:04;9.70;99.90
27224;DHT22;14965;50.660;13.226;2023-04-01T12:21:48;9.70;99.90
27224;DHT22;14965;50.660;13.226;2023-04-01T12:24:47;9.80;99.90
27224;DHT22;14965;50.660;13.226;2023-04-01T12:27:41;10.00;99.90
27224;DHT22;14965;50.660;13.226;2023-04-01T12:30:30;10.20;99.90
27224;DHT22;14965;50.660;13.226;2023-04-01T12:33:24;10.50;99.90
27224;DHT22;14965;50.660;13.226;2023-04-01T12:36:11;10.70;99.90
27224;DHT22;14965;50.660;13.226;2023-04-01T12:38:56;10.90;99.90
27224;DHT22;14965;50.660;13.226;2023-04-01T12:41:39;11.00;99.90
27224;DHT22;14965;50.660;13.226;2023-04-01T12:44:34;11.10;99.90
27224;DHT22;14965;50.660;13.226;2023-04-01T12:50:41;11.10;99.90
27224;DHT22;14965;50.660;13.226;2023-04-01T12:53:35;11.20;99.90
27224;DHT22;14965;50.660;13.226;2023-04-01T12:56:14;11.20;99.90
27224;DHT22;14965;50.660;13.226;2023-04-01T12:59:02;11.20;99.90
27224;DHT22;14965;50.660;13.226;2023-04-01T13:02:00;11.10;99.90
27224;DHT22;14965;50.660;13.226;2023-04-01T13:05:10;11.00;99.90
27224;DHT22;14965;50.660;13.226;2023-04-01T13:08:07;11.00;99.90
27224;DHT22;14965;50.660;13.226;2023-04-01T13:10:56;10.80;99.90
27224;DHT22;14965;50.660;13.226;2023-04-01T13:13:47;10.60;99.90
27224;DHT22;14965;50.660;13.226;2023-04-01T13:16:41;10.70;99.90
27224;DHT22;14965;50.660;13.226;2023-04-01T13:19:17;10.80;99.90
27224;DHT22;14965;50.660;13.226;2023-04-01T13:21:56;10.80;99.90
27224;DHT22;14965;50.660;13.226;2023-04-01T13:24:37;10.80;99.90
27224;DHT22;14965;50.660;13.226;2023-04-01T13:27:14;10.70;99.90
27224;DHT22;14965;50.660;13.226;2023-04-01T13:29:57;10.40;99.90
27224;DHT22;14965;50.660;13.226;2023-04-01T13:32:33;10.20;99.90
27224;DHT22;14965;50.660;13.226;2023-04-01T13:35:31;10.10;99.90
27224;DHT22;14965;50.660;13.226;2023-04-01T13:41:07;10.00;99.90
27224;DHT22;14965;50.660;13.226;2023-04-01T13:43:47;9.80;99.90
27224;DHT22;14965;50.660;13.226;2023-04-01T13:46:34;9.80;99.90
27224;DHT22;14965;50.660;13.226;2023-04-01T13:49:36;9.70;99.90
27224;DHT22;14965;50.660;13.226;2023-04-01T13:52:21;9.70;99.90
27224;DHT22;14965;50.660;13.226;2023-04-01T13:58:14;9.70;99.90
27224;DHT22;14965;50.660;13.226;2023-04-01T14:00:57;9.90;99.90
27224;DHT22;14965;50.660;13.226;2023-04-01T14:03:48;9.90;99.90
27224;DHT22;14965;50.660;13.226;2023-04-01T14:06:35;9.80;99.90
27224;DHT22;14965;50.660;13.226;2023-04-01T14:09:33;9.70;99.90
27224;DHT22;14965;50.660;13.226;2023-04-01T14:12:17;9.60;99.90
27224;DHT22;14965;50.660;13.226;2023-04-01T14:18:01;9.50;99.90
27224;DHT22;14965;50.660;13.226;2023-04-01T14:20:39;9.60;99.90
27224;DHT22;14965;50.660;13.226;2023-04-01T14:26:35;9.60;99.90
27224;DHT22;14965;50.660;13.226;2023-04-01T14:29:21;9.70;99.90
27224;DHT22;14965;50.660;13.226;2023-04-01T14:32:07;9.70;99.90
27224;DHT22;14965;50.660;13.226;2023-04-01T14:34:53;9.80;99.90
27224;DHT22;14965;50.660;13.226;2023-04-01T14:37:49;10.00;99.90
27224;DHT22;14965;50.660;13.226;2023-04-01T14:40:39;10.10;99.90
27224;DHT22;14965;50.660;13.226;2023-04-01T14:43:47;10.30;99.90
27224;DHT22;14965;50.660;13.226;2023-04-01T14:46:49;10.30;99.90
27224;DHT22;14965;50.660;13.226;2023-04-01T14:49:34;10.20;99.90
27224;DHT22;14965;50.660;13.226;2023-04-01T14:52:11;10.00;99.90
27224;DHT22;14965;50.660;13.226;2023-04-01T14:54:43;9.90;99.90
27224;DHT22;14965;50.660;13.226;2023-04-01T14:57:13;9.90;99.90
27224;DHT22;14965;50.660;13.226;2023-04-01T14:59:41;9.90;99.90
27224;DHT22;14965;50.660;13.226;2023-04-01T15:02:28;10.00;99.90
27224;DHT22;14965;50.660;13.226;2023-04-01T15:05:13;10.20;99.90
27224;DHT22;14965;50.660;13.226;2023-04-01T15:11:07;10.50;99.90
27224;DHT22;14965;50.660;13.226;2023-04-01T15:14:16;10.60;99.90
27224;DHT22;14965;50.660;13.226;2023-04-01T15:17:02;10.60;99.90
27224;DHT22;14965;50.660;13.226;2023-04-01T15:19:44;10.60;99.90
27224;DHT22;14965;50.660;13.226;2023-04-01T15:22:39;10.60;99.90
27224;DHT22;14965;50.660;13.226;2023-04-01T15:25:33;10.60;99.90
27224;DHT22;14965;50.660;13.226;2023-04-01T15:28:19;10.70;99.90
27224;DHT22;14965;50.660;13.226;2023-04-01T15:30:58;10.60;99.90
27224;DHT22;14965;50.660;13.226;2023-04-01T15:33:41;10.40;99.90
27224;DHT22;14965;50.660;13.226;2023-04-01T15:36:28;10.40;99.90
27224;DHT22;14965;50.660;13.226;2023-04-01T15:39:13;10.40;99.90
27224;DHT22;14965;50.660;13.226;2023-04-01T15:41:46;10.40;99.90
27224;DHT22;14965;50.660;13.226;2023-04-01T15:47:39;10.20;99.90
27224;DHT22;14965;50.660;13.226;2023-04-01T15:50:26;10.20;99.90
27224;DHT22;14965;50.660;13.226;2023-04-01T15:53:09;10.10;99.90
27224;DHT22;14965;50.660;13.226;2023-04-01T15:55:54;10.00;99.90
27224;DHT22;14965;50.660;13.226;2023-04-01T15:58:35;9.90;99.90
27224;DHT22;14965;50.660;13.226;2023-04-01T16:01:21;9.80;99.90
27224;DHT22;14965;50.660;13.226;2023-04-01T16:04:10;9.60;99.90
27224;DHT22;14965;50.660;13.226;2023-04-01T16:07:10;9.60;99.90
27224;DHT22;14965;50.660;13.226;2023-04-01T16:10:06;9.70;99.90
27224;DHT22;14965;50.660;13.226;2023-04-01T16:12:53;9.60;99.90
27224;DHT22;14965;50.660;13.226;2023-04-01T16:15:34;9.70;99.90
27224;DHT22;14965;50.660;13.226;2023-04-01T16:18:31;9.60;99.90
27224;DHT22;14965;50.660;13.226;2023-04-01T16:21:14;9.60;99.90
27224;DHT22;14965;50.660;13.226;2023-04-01T16:23:56;9.60;99.90
27224;DHT22;14965;50.660;13.226;2023-04-01T16:26:28;9.50;99.90
27224;DHT22;14965;50.660;13.226;2023-04-01T16:29:10;9.40;99.90
27224;DHT22;14965;50.660;13.226;2023-04-01T16:31:48;9.30;99.90
27224;DHT22;14965;50.660;13.226;2023-04-01T16:34:20;9.30;99.90
27224;DHT22;14965;50.660;13.226;2023-04-01T16:36:55;9.30;99.90
27224;DHT22;14965;50.660;13.226;2023-04-01T16:39:34;9.40;99.90
27224;DHT22;14965;50.660;13.226;2023-04-01T16:42:19;9.40;99.90
27224;DHT22;14965;50.660;13.226;2023-04-01T16:44:54;9.30;99.90
27224;DHT22;14965;50.660;13.226;2023-04-01T16:47:29;9.30;99.90
27224;DHT22;14965;50.660;13.226;2023-04-01T16:49:59;9.30;99.90
27224;DHT22;14965;50.660;13.226;2023-04-01T16:52:53;9.20;99.90
27224;DHT22;14965;50.660;13.226;2023-04-01T16:55:35;9.20;99.90
27224;DHT22;14965;50.660;13.226;2023-04-01T16:58:07;9.10;99.90
27224;DHT22;14965;50.660;13.226;2023-04-01T17:00:41;9.10;99.90
27224;DHT22;14965;50.660;13.226;2023-04-01T17:03:17;9.00;99.90
27224;DHT22;14965;50.660;13.226;2023-04-01T17:05:55;9.10;99.90
27224;DHT22;14965;50.660;13.226;2023-04-01T17:08:39;9.00;99.90
27224;DHT22;14965;50.660;13.226;2023-04-01T17:11:19;9.00;99.90
27224;DHT22;14965;50.660;13.226;2023-04-01T17:13:57;9.00;99.90
27224;DHT22;14965;50.660;13.226;2023-04-01T17:16:55;9.00;99.90
27224;DHT22;14965;50.660;13.226;2023-04-01T17:19:46;8.90;99.90
27224;DHT22;14965;50.660;13.226;2023-04-01T17:22:26;8.90;99.90
27224;DHT22;14965;50.660;13.226;2023-04-01T17:25:17;8.80;99.90
27224;DHT22;14965;50.660;13.226;2023-04-01T17:27:59;8.90;99.90
27224;DHT22;14965;50.660;13.226;2023-04-01T17:30:36;8.80;99.90
27224;DHT22;14965;50.660;13.226;2023-04-01T17:33:39;8.80;99.90
27224;DHT22;14965;50.660;13.226;2023-04-01T17:36:24;8.80;99.90
27224;DHT22;14965;50.660;13.226;2023-04-01T17:39:15;8.80;99.90
27224;DHT22;14965;50.660;13.226;2023-04-01T17:41:54;8.70;99.90
27224;DHT22;14965;50.660;13.226;2023-04-01T17:44:44;8.70;99.90
27224;DHT22;14965;50.660;13.226;2023-04-01T17:47:44;8.70;99.90
27224;DHT22;14965;50.660;13.226;2023-04-01T17:50:43;8.60;99.90
27224;DHT22;14965;50.660;13.226;2023-04-01T17:53:24;8.60;99.90
27224;DHT22;14965;50.660;13.226;2023-04-01T17:56:17;8.50;99.90
27224;DHT22;14965;50.660;13.226;2023-04-01T17:58:59;8.40;99.90
27224;DHT22;14965;50.660;13.226;2023-04-01T18:01:40;8.30;99.90
27224;DHT22;14965;50.660;13.226;2023-04-01T18:04:40;8.40;99.90
27224;DHT22;14965;50.660;13.226;2023-04-01T18:07:50;8.30;99.90
27224;DHT22;14965;50.660;13.226;2023-04-01T18:10:31;8.30;99.90
27224;DHT22;14965;50.660;13.226;2023-04-01T18:16:26;8.20;99.90
27224;DHT22;14965;50.660;13.226;2023-04-01T18:19:02;8.30;99.90
27224;DHT22;14965;50.660;13.226;2023-04-01T18:21:42;8.30;99.90
27224;DHT22;14965;50.660;13.226;2023-04-01T18:24:22;8.30;99.90
27224;DHT22;14965;50.660;13.226;2023-04-01T18:27:02;8.30;99.90
27224;DHT22;14965;50.660;13.226;2023-04-01T18:29:39;8.30;99.90
27224;DHT22;14965;50.660;13.226;2023-04-01T18:32:22;8.30;99.90
27224;DHT22;14965;50.660;13.226;2023-04-01T18:35:00;8.30;99.90
27224;DHT22;14965;50.660;13.226;2023-04-01T18:37:44;8.30;99.90
27224;DHT22;14965;50.660;13.226;2023-04-01T18:40:17;8.30;99.90
27224;DHT22;14965;50.660;13.226;2023-04-01T18:42:57;8.30;99.90
27224;DHT22;14965;50.660;13.226;2023-04-01T18:45:33;8.30;99.90
27224;DHT22;14965;50.660;13.226;2023-04-01T18:48:14;8.30;99.90
27224;DHT22;14965;50.660;13.226;2023-04-01T18:50:47;8.30;99.90
27224;DHT22;14965;50.660;13.226;2023-04-01T18:53:23;8.30;99.90
27224;DHT22;14965;50.660;13.226;2023-04-01T18:55:56;8.30;99.90
27224;DHT22;14965;50.660;13.226;2023-04-01T18:58:31;8.30;99.90
27224;DHT22;14965;50.660;13.226;2023-04-01T19:01:19;8.30;99.90
27224;DHT22;14965;50.660;13.226;2023-04-01T19:04:16;8.20;99.90
27224;DHT22;14965;50.660;13.226;2023-04-01T19:06:50;8.10;99.90
27224;DHT22;14965;50.660;13.226;2023-04-01T19:09:29;8.10;99.90
27224;DHT22;14965;50.660;13.226;2023-04-01T19:15:24;8.00;99.90
27224;DHT22;14965;50.660;13.226;2023-04-01T19:21:29;8.00;99.90
27224;DHT22;14965;50.660;13.226;2023-04-01T19:24:42;8.00;99.90
27224;DHT22;14965;50.660;13.226;2023-04-01T19:27:59;8.00;99.90
27224;DHT22;14965;50.660;13.226;2023-04-01T19:30:45;7.90;99.90
27224;DHT22;14965;50.660;13.226;2023-04-01T19:33:28;8.00;99.90
27224;DHT22;14965;50.660;13.226;2023-04-01T19:36:16;8.00;99.90
27224;DHT22;14965;50.660;13.226;2023-04-01T19:39:23;8.00;99.90
27224;DHT22;14965;50.660;13.226;2023-04-01T19:42:14;8.00;99.90
27224;DHT22;14965;50.660;13.226;2023-04-01T19:45:23;8.00;99.90
27224;DHT22;14965;50.660;13.226;2023-04-01T19:48:32;7.90;99.90
27224;DHT22;14965;50.660;13.226;2023-04-01T19:51:23;8.00;99.90
27224;DHT22;14965;50.660;13.226;2023-04-01T19:54:35;8.00;99.90
27224;DHT22;14965;50.660;13.226;2023-04-01T19:57:41;8.00;99.90
27224;DHT22;14965;50.660;13.226;2023-04-01T20:00:24;8.00;99.90
27224;DHT22;14965;50.660;13.226;2023-04-01T20:03:11;7.90;99.90
27224;DHT22;14965;50.660;13.226;2023-04-01T20:06:00;8.00;99.90
27224;DHT22;14965;50.660;13.226;2023-04-01T20:08:36;8.00;99.90
27224;DHT22;14965;50.660;13.226;2023-04-01T20:11:18;8.00;99.90
27224;DHT22;14965;50.660;13.226;2023-04-01T20:14:01;8.00;99.90
27224;DHT22;14965;50.660;13.226;2023-04-01T20:20:02;8.00;99.90
27224;DHT22;14965;50.660;13.226;2023-04-01T20:23:04;8.10;99.90
27224;DHT22;14965;50.660;13.226;2023-04-01T20:25:49;8.00;99.90
27224;DHT22;14965;50.660;13.226;2023-04-01T20:28:32;8.10;99.90
27224;DHT22;14965;50.660;13.226;2023-04-01T20:31:24;8.10;99.90
27224;DHT22;14965;50.660;13.226;2023-04-01T20:37:30;8.10;99.90
27224;DHT22;14965;50.660;13.226;2023-04-01T20:40:32;8.00;99.90
27224;DHT22;14965;50.660;13.226;2023-04-01T20:43:33;8.00;99.90
27224;DHT22;14965;50.660;13.226;2023-04-01T20:46:16;8.00;99.90
27224;DHT22;14965;50.660;13.226;2023-04-01T20:52:38;8.00;99.90
27224;DHT22;14965;50.660;13.226;2023-04-01T20:55:36;7.90;99.90
27224;DHT22;14965;50.660;13.226;2023-04-01T20:58:32;8.00;99.90
27224;DHT22;14965;50.660;13.226;2023-04-01T21:01:15;8.00;99.90
27224;DHT22;14965;50.660;13.226;2023-04-01T21:04:22;8.00;99.90
27224;DHT22;14965;50.660;13.226;2023-04-01T21:10:55;8.00;99.90
27224;DHT22;14965;50.660;13.226;2023-04-01T21:17:58;8.00;99.90
27224;DHT22;14965;50.660;13.226;2023-04-01T21:25:30;8.00;99.90
27224;DHT22;14965;50.660;13.226;2023-04-01T21:39:41;8.00;99.90
27224;DHT22;14965;50.660;13.226;2023-04-01T21:42:43;8.00;99.90
27224;DHT22;14965;50.660;13.226;2023-04-01T21:49:44;8.00;99.90
27224;DHT22;14965;50.660;13.226;2023-04-01T21:52:57;8.00;99.90
27224;DHT22;14965;50.660;13.226;2023-04-01T22:03:43;8.00;99.90
27224;DHT22;14965;50.660;13.226;2023-04-01T22:06:33;7.90;99.90
27224;DHT22;14965;50.660;13.226;2023-04-01T22:09:10;7.80;99.90
27224;DHT22;14965;50.660;13.226;2023-04-01T22:11:59;7.80;99.90
27224;DHT22;14965;50.660;13.226;2023-04-01T22:15:13;7.80;99.90
27224;DHT22;14965;50.660;13.226;2023-04-01T22:24:48;7.90;99.90
27224;DHT22;14965;50.660;13.226;2023-04-01T22:27:24;7.90;99.90
27224;DHT22;14965;50.660;13.226;2023-04-01T22:30:06;7.90;99.90
27224;DHT22;14965;50.660;13.226;2023-04-01T22:32:43;7.90;99.90
27224;DHT22;14965;50.660;13.226;2023-04-01T22:35:20;7.90;99.90
27224;DHT22;14965;50.660;13.226;2023-04-01T22:38:06;7.90;99.90
27224;DHT22;14965;50.660;13.226;2023-04-01T22:40:54;7.80;99.90
27224;DHT22;14965;50.660;13.226;2023-04-01T22:43:50;7.80;99.90
27224;DHT22;14965;50.660;13.226;2023-04-01T22:46:44;7.90;99.90
27224;DHT22;14965;50.660;13.226;2023-04-01T22:49:21;7.80;99.90
27224;DHT22;14965;50.660;13.226;2023-04-01T22:51:59;7.80;99.90
27224;DHT22;14965;50.660;13.226;2023-04-01T22:54:34;7.80;99.90
27224;DHT22;14965;50.660;13.226;2023-04-01T22:57:10;7.80;99.90
27224;DHT22;14965;50.660;13.226;2023-04-01T23:00:03;7.80;99.90
27224;DHT22;14965;50.660;13.226;2023-04-01T23:02:34;7.80;99.90
27224;DHT22;14965;50.660;13.226;2023-04-01T23:05:05;7.80;99.90
27224;DHT22;14965;50.660;13.226;2023-04-01T23:07:43;7.70;99.90
27224;DHT22;14965;50.660;13.226;2023-04-01T23:10:18;7.70;99.90
27224;DHT22;14965;50.660;13.226;2023-04-01T23:13:16;7.70;99.90
27224;DHT22;14965;50.660;13.226;2023-04-01T23:15:47;7.70;99.90
27224;DHT22;14965;50.660;13.226;2023-04-01T23:18:22;7.70;99.90
27224;DHT22;14965;50.660;13.226;2023-04-01T23:21:09;7.60;99.90
27224;DHT22;14965;50.660;13.226;2023-04-01T23:23:50;7.60;99.90
27224;DHT22;14965;50.660;13.226;2023-04-01T23:26:42;7.60;99.90
27224;DHT22;14965;50.660;13.226;2023-04-01T23:29:22;7.60;99.90
27224;DHT22;14965;50.660;13.226;2023-04-01T23:32:03;7.60;99.90
27224;DHT22;14965;50.660;13.226;2023-04-01T23:34:30;7.60;99.90
27224;DHT22;14965;50.660;13.226;2023-04-01T23:37:01;7.60;99.90
27224;DHT22;14965;50.660;13.226;2023-04-01T23:39:32;7.60;99.90
27224;DHT22;14965;50.660;13.226;2023-04-01T23:42:02;7.60;99.90
27224;DHT22;14965;50.660;13.226;2023-04-01T23:44:33;7.60;99.90
27224;DHT22;14965;50.660;13.226;2023-04-01T23:47:02;7.60;99.90
27224;DHT22;14965;50.660;13.226;2023-04-01T23:49:34;7.50;99.90
27224;DHT22;14965;50.660;13.226;2023-04-01T23:52:11;7.60;99.90
27224;DHT22;14965;50.660;13.226;2023-04-01T23:54:43;7.50;99.90
27224;DHT22;14965;50.660;13.226;2023-04-01T23:57:15;7.50;99.90
